createdAt,value
2018-12-26T00:00:02.205Z,2.80
2018-12-26T00:02:30.670Z,2.81
2018-12-26T00:04:59.119Z,2.81
2018-12-26T00:07:27.535Z,2.70
2018-12-26T00:09:55.983Z,2.71
2018-12-26T00:12:24.404Z,2.70
2018-12-26T00:14:52.859Z,2.66
2018-12-26T00:17:21.356Z,2.68
2018-12-26T00:19:49.816Z,2.65
2018-12-26T00:22:18.295Z,2.66
2018-12-26T00:24:46.790Z,2.66
2018-12-26T00:27:15.225Z,2.64
2018-12-26T00:29:43.695Z,2.66
2018-12-26T00:32:12.100Z,2.64
2018-12-26T00:34:40.549Z,2.60
2018-12-26T00:37:08.963Z,2.58
2018-12-26T00:39:37.492Z,2.57
2018-12-26T00:42:06.040Z,2.54
2018-12-26T00:44:34.520Z,2.52
2018-12-26T00:47:02.953Z,2.52
2018-12-26T00:49:31.363Z,2.52
2018-12-26T00:51:59.809Z,2.50
2018-12-26T00:54:28.237Z,2.50
2018-12-26T00:56:56.702Z,2.43
2018-12-26T00:59:25.111Z,2.38
2018-12-26T01:01:53.552Z,2.39
2018-12-26T01:04:22.049Z,2.39
2018-12-26T01:06:50.570Z,2.36
2018-12-26T01:09:19.140Z,2.35
2018-12-26T01:11:47.630Z,2.36
2018-12-26T01:14:16.130Z,2.34
2018-12-26T01:16:44.576Z,2.28
2018-12-26T01:19:12.997Z,2.27
2018-12-26T01:21:41.471Z,2.29
2018-12-26T01:24:09.899Z,2.33
2018-12-26T01:26:38.353Z,2.36
2018-12-26T01:29:06.767Z,2.34
2018-12-26T01:31:35.225Z,2.33
2018-12-26T01:34:03.696Z,2.31
2018-12-26T01:36:32.138Z,2.27
2018-12-26T01:39:00.629Z,2.26
2018-12-26T01:41:29.058Z,2.26
2018-12-26T01:43:57.507Z,2.25
2018-12-26T01:46:25.926Z,2.20
2018-12-26T01:48:54.387Z,2.13
2018-12-26T01:51:22.802Z,2.11
2018-12-26T01:53:51.290Z,2.13
2018-12-26T01:56:27.675Z,2.15
2018-12-26T01:58:49.912Z,2.13
2018-12-26T02:01:18.395Z,2.10
2018-12-26T02:03:46.979Z,2.08
2018-12-26T02:06:15.499Z,2.03
2018-12-26T02:08:44.027Z,1.96
2018-12-26T02:11:12.450Z,1.96
2018-12-26T02:13:40.981Z,1.94
2018-12-26T02:16:09.456Z,1.95
2018-12-26T02:18:37.946Z,1.95
2018-12-26T02:21:06.627Z,1.94
2018-12-26T02:23:35.081Z,1.97
2018-12-26T02:26:03.505Z,1.98
2018-12-26T02:28:31.939Z,1.98
2018-12-26T02:31:00.392Z,1.96
2018-12-26T02:33:28.823Z,1.97
2018-12-26T02:35:57.371Z,1.92
2018-12-26T02:38:25.860Z,1.91
2018-12-26T02:40:54.469Z,1.92
2018-12-26T02:43:22.967Z,1.91
2018-12-26T02:45:51.412Z,1.87
2018-12-26T02:48:19.830Z,1.85
2018-12-26T02:50:48.464Z,1.85
2018-12-26T02:53:16.968Z,1.86
2018-12-26T02:55:45.406Z,1.90
2018-12-26T02:58:13.815Z,1.93
2018-12-26T03:00:42.377Z,1.92
2018-12-26T03:03:12.464Z,1.89
2018-12-26T03:05:40.895Z,1.87
2018-12-26T03:08:09.357Z,1.87
2018-12-26T03:10:37.889Z,1.88
2018-12-26T03:13:06.494Z,1.86
2018-12-26T03:15:34.984Z,1.85
2018-12-26T03:18:03.497Z,1.87
2018-12-26T03:20:31.917Z,1.88
2018-12-26T03:23:00.379Z,1.82
2018-12-26T03:25:28.862Z,1.79
2018-12-26T03:27:57.314Z,1.74
2018-12-26T03:30:25.742Z,1.71
2018-12-26T03:32:54.188Z,1.72
2018-12-26T03:35:22.598Z,1.75
2018-12-26T03:37:51.116Z,1.80
2018-12-26T03:40:19.884Z,1.85
2018-12-26T03:42:48.755Z,1.84
2018-12-26T03:45:17.161Z,1.83
2018-12-26T03:47:45.983Z,1.75
2018-12-26T03:50:14.414Z,1.69
2018-12-26T03:52:43.105Z,1.65
2018-12-26T03:55:11.660Z,1.60
2018-12-26T03:57:40.111Z,1.59
2018-12-26T04:00:09.599Z,1.60
2018-12-26T04:02:38.052Z,1.58
2018-12-26T04:05:06.617Z,1.60
2018-12-26T04:07:35.042Z,1.60
2018-12-26T04:10:03.635Z,1.57
2018-12-26T04:12:32.325Z,1.56
2018-12-26T04:15:01.109Z,1.55
2018-12-26T04:17:29.766Z,1.53
2018-12-26T04:19:58.272Z,1.54
2018-12-26T04:22:26.937Z,1.53
2018-12-26T04:24:55.540Z,1.53
2018-12-26T04:27:23.950Z,1.52
2018-12-26T04:29:52.395Z,1.48
2018-12-26T04:32:20.804Z,1.47
2018-12-26T04:34:49.322Z,1.47
2018-12-26T04:37:17.744Z,1.47
2018-12-26T04:39:46.192Z,1.48
2018-12-26T04:42:14.650Z,1.52
2018-12-26T04:44:43.082Z,1.58
2018-12-26T04:47:11.516Z,1.61
2018-12-26T04:49:39.981Z,1.61
2018-12-26T04:52:08.413Z,1.63
2018-12-26T04:54:36.880Z,1.67
2018-12-26T04:57:05.298Z,1.64
2018-12-26T04:59:33.720Z,1.64
2018-12-26T05:02:02.223Z,1.64
2018-12-26T05:04:30.664Z,1.69
2018-12-26T05:06:59.116Z,1.67
2018-12-26T05:09:27.542Z,1.68
2018-12-26T05:11:56.054Z,1.65
2018-12-26T05:14:24.520Z,1.68
2018-12-26T05:16:52.980Z,1.63
2018-12-26T05:19:21.388Z,1.64
2018-12-26T05:21:49.905Z,1.63
2018-12-26T05:24:18.334Z,1.61
2018-12-26T05:26:46.781Z,1.61
2018-12-26T05:29:15.227Z,1.62
2018-12-26T05:31:43.672Z,1.65
2018-12-26T05:34:12.083Z,1.64
2018-12-26T05:36:40.518Z,1.62
2018-12-26T05:39:08.950Z,1.61
2018-12-26T05:41:37.401Z,1.60
2018-12-26T05:44:05.890Z,1.64
2018-12-26T05:46:34.312Z,1.68
2018-12-26T05:49:04.402Z,1.68
2018-12-26T05:51:34.401Z,1.71
2018-12-26T05:54:02.937Z,1.65
2018-12-26T05:56:31.360Z,1.62
2018-12-26T05:58:59.838Z,1.61
2018-12-26T06:01:28.294Z,1.67
2018-12-26T06:03:56.757Z,1.69
2018-12-26T06:06:25.192Z,1.77
2018-12-26T06:08:53.641Z,1.81
2018-12-26T06:11:22.055Z,1.83
2018-12-26T06:13:50.619Z,1.83
2018-12-26T06:16:19.064Z,1.81
2018-12-26T06:18:47.503Z,1.80
2018-12-26T06:21:15.923Z,1.78
2018-12-26T06:23:44.398Z,1.76
2018-12-26T06:26:12.819Z,1.77
2018-12-26T06:28:41.260Z,1.72
2018-12-26T06:31:09.738Z,1.72
2018-12-26T06:33:38.224Z,1.71
2018-12-26T06:36:06.734Z,1.70
2018-12-26T06:38:35.148Z,1.67
2018-12-26T06:41:03.699Z,1.65
2018-12-26T06:43:32.111Z,1.66
2018-12-26T06:46:00.572Z,1.69
2018-12-26T06:48:28.990Z,1.68
2018-12-26T06:50:57.437Z,1.69
2018-12-26T06:53:25.942Z,1.68
2018-12-26T06:55:54.399Z,1.69
2018-12-26T06:58:22.808Z,1.63
2018-12-26T07:00:51.251Z,1.64
2018-12-26T07:03:19.663Z,1.62
2018-12-26T07:05:48.185Z,1.61
2018-12-26T07:08:16.607Z,1.60
2018-12-26T07:10:45.073Z,1.61
2018-12-26T07:13:13.492Z,1.60
2018-12-26T07:15:42.029Z,1.61
2018-12-26T07:18:10.538Z,1.60
2018-12-26T07:20:38.999Z,1.62
2018-12-26T07:23:07.427Z,1.60
2018-12-26T07:25:35.880Z,1.61
2018-12-26T07:28:08.936Z,1.62
2018-12-26T07:30:34.566Z,1.64
2018-12-26T07:33:03.054Z,1.68
2018-12-26T07:35:31.495Z,1.65
2018-12-26T07:37:59.922Z,1.63
2018-12-26T07:40:28.350Z,1.63
2018-12-26T07:42:56.794Z,1.63
2018-12-26T07:45:25.310Z,1.60
2018-12-26T07:47:53.801Z,1.61
2018-12-26T07:50:22.187Z,1.62
2018-12-26T07:52:50.681Z,1.67
2018-12-26T07:55:19.050Z,1.71
2018-12-26T07:57:47.539Z,1.70
2018-12-26T08:00:15.979Z,1.69
2018-12-26T08:02:44.396Z,1.72
2018-12-26T08:05:12.859Z,1.72
2018-12-26T08:07:41.313Z,1.73
2018-12-26T08:10:09.765Z,1.72
2018-12-26T08:12:38.206Z,1.75
2018-12-26T08:15:10.747Z,1.80
2018-12-26T08:17:36.812Z,1.84
2018-12-26T08:20:07.102Z,1.85
2018-12-26T08:22:35.517Z,1.85
2018-12-26T08:25:04.148Z,1.87
2018-12-26T08:27:32.599Z,1.90
2018-12-26T08:30:01.029Z,1.96
2018-12-26T08:32:29.438Z,2.05
2018-12-26T08:34:57.913Z,2.12
2018-12-26T08:37:26.353Z,2.10
2018-12-26T08:39:54.781Z,2.18
2018-12-26T08:42:23.283Z,2.24
2018-12-26T08:44:51.786Z,2.27
2018-12-26T08:47:20.211Z,2.28
2018-12-26T08:49:48.667Z,2.33
2018-12-26T08:52:17.151Z,2.35
2018-12-26T08:54:47.252Z,2.40
2018-12-26T08:57:15.671Z,2.44
2018-12-26T08:59:44.203Z,2.45
2018-12-26T09:02:12.614Z,2.46
2018-12-26T09:04:41.046Z,2.49
2018-12-26T09:07:09.520Z,2.54
2018-12-26T09:09:38.031Z,2.58
2018-12-26T09:12:06.490Z,2.59
2018-12-26T09:14:34.949Z,2.67
2018-12-26T09:17:03.448Z,2.74
2018-12-26T09:19:31.824Z,2.77
2018-12-26T09:22:00.264Z,2.75
2018-12-26T09:24:28.698Z,2.73
2018-12-26T09:26:57.441Z,2.73
2018-12-26T09:29:25.881Z,2.72
2018-12-26T09:31:54.334Z,2.69
2018-12-26T09:34:22.775Z,2.71
2018-12-26T09:36:51.217Z,2.76
2018-12-26T09:39:19.650Z,2.80
2018-12-26T09:41:48.107Z,2.86
2018-12-26T09:44:16.529Z,2.91
2018-12-26T09:46:44.992Z,2.92
2018-12-26T09:49:13.420Z,2.96
2018-12-26T09:51:41.867Z,3.01
2018-12-26T09:54:10.294Z,3.06
2018-12-26T09:56:38.901Z,3.10
2018-12-26T09:59:07.427Z,3.10
2018-12-26T10:01:35.857Z,3.11
2018-12-26T10:04:04.311Z,3.11
2018-12-26T10:06:32.734Z,3.14
2018-12-26T10:09:01.213Z,3.20
2018-12-26T10:11:29.632Z,3.31
2018-12-26T10:13:58.055Z,3.40
2018-12-26T10:16:26.488Z,3.48
2018-12-26T10:18:54.946Z,3.60
2018-12-26T10:21:23.478Z,3.68
2018-12-26T10:23:51.942Z,3.79
2018-12-26T10:26:20.375Z,3.87
2018-12-26T10:28:49.027Z,3.95
2018-12-26T10:31:17.444Z,4.02
2018-12-26T10:33:45.972Z,4.11
2018-12-26T10:36:14.487Z,4.23
2018-12-26T10:38:42.943Z,4.30
2018-12-26T10:41:11.365Z,4.36
2018-12-26T10:43:39.782Z,4.44
2018-12-26T10:46:08.247Z,4.50
2018-12-26T10:48:36.666Z,4.59
2018-12-26T10:51:05.169Z,4.58
2018-12-26T10:53:33.605Z,4.60
2018-12-26T10:56:02.093Z,4.61
2018-12-26T10:58:30.669Z,4.66
2018-12-26T11:00:59.116Z,4.76
2018-12-26T11:03:27.615Z,4.91
2018-12-26T11:05:56.076Z,5.07
2018-12-26T11:08:24.496Z,5.19
2018-12-26T11:10:52.957Z,5.25
2018-12-26T11:13:21.414Z,5.46
2018-12-26T11:15:49.936Z,5.67
2018-12-26T11:18:18.658Z,5.84
2018-12-26T11:20:47.393Z,5.98
2018-12-26T11:23:15.831Z,6.15
2018-12-26T11:25:44.301Z,6.32
2018-12-26T11:28:12.715Z,6.49
2018-12-26T11:30:41.275Z,6.64
2018-12-26T11:33:09.738Z,6.80
2018-12-26T11:35:38.163Z,6.82
2018-12-26T11:38:06.791Z,6.82
2018-12-26T11:40:35.427Z,6.94
2018-12-26T11:43:04.035Z,7.06
2018-12-26T11:45:32.474Z,7.18
2018-12-26T11:48:00.928Z,7.38
2018-12-26T11:50:29.359Z,7.60
2018-12-26T11:52:57.811Z,7.71
2018-12-26T11:55:26.338Z,7.91
2018-12-26T11:57:54.812Z,8.16
2018-12-26T12:00:23.231Z,8.31
2018-12-26T12:02:53.435Z,8.59
2018-12-26T12:05:21.946Z,8.58
2018-12-26T12:07:50.412Z,8.40
2018-12-26T12:10:19.030Z,8.28
2018-12-26T12:12:47.624Z,8.30
2018-12-26T12:15:16.063Z,8.38
2018-12-26T12:17:44.639Z,8.58
2018-12-26T12:20:13.244Z,8.74
2018-12-26T12:22:44.772Z,8.77
2018-12-26T12:25:13.195Z,8.89
2018-12-26T12:27:41.758Z,9.25
2018-12-26T12:30:10.252Z,9.68
2018-12-26T12:32:38.712Z,9.98
2018-12-26T12:35:07.543Z,9.98
2018-12-26T12:37:36.062Z,10.24
2018-12-26T12:40:07.170Z,10.24
2018-12-26T12:42:35.739Z,10.25
2018-12-26T12:45:05.027Z,10.19
2018-12-26T12:47:33.523Z,10.19
2018-12-26T12:50:02.116Z,10.16
2018-12-26T12:52:30.596Z,10.05
2018-12-26T12:54:59.186Z,10.05
2018-12-26T12:57:27.702Z,9.88
2018-12-26T12:59:56.306Z,9.73
2018-12-26T13:02:24.835Z,9.73
2018-12-26T13:04:53.352Z,9.59
2018-12-26T13:07:21.867Z,9.40
2018-12-26T13:09:50.406Z,9.40
2018-12-26T13:12:18.882Z,9.37
2018-12-26T13:14:47.355Z,9.31
2018-12-26T13:17:15.785Z,9.15
2018-12-26T13:19:44.327Z,9.05
2018-12-26T13:22:12.741Z,9.05
2018-12-26T13:24:41.197Z,9.08
2018-12-26T13:27:09.612Z,8.90
2018-12-26T13:29:38.091Z,8.70
2018-12-26T13:32:06.735Z,8.73
2018-12-26T13:34:35.189Z,8.68
2018-12-26T13:37:03.705Z,8.59
2018-12-26T13:39:32.315Z,8.42
2018-12-26T13:42:00.840Z,8.31
2018-12-26T13:44:29.304Z,8.19
2018-12-26T13:46:57.947Z,8.07
2018-12-26T13:49:26.389Z,7.99
2018-12-26T13:51:54.877Z,7.94
2018-12-26T13:54:24.377Z,7.83
2018-12-26T13:56:52.835Z,7.81
2018-12-26T13:59:21.265Z,7.71
2018-12-26T14:01:49.722Z,7.61
2018-12-26T14:04:18.131Z,7.54
2018-12-26T14:06:46.592Z,7.46
2018-12-26T14:09:15.086Z,7.39
2018-12-26T14:11:43.552Z,7.38
2018-12-26T14:14:13.526Z,7.41
2018-12-26T14:16:41.980Z,7.43
2018-12-26T14:19:10.405Z,7.36
2018-12-26T14:21:38.845Z,7.19
2018-12-26T14:24:07.300Z,7.16
2018-12-26T14:26:35.775Z,7.15
2018-12-26T14:29:04.329Z,7.03
2018-12-26T14:31:32.848Z,6.99
2018-12-26T14:34:01.325Z,6.98
2018-12-26T14:36:29.758Z,6.89
2018-12-26T14:38:58.196Z,6.84
2018-12-26T14:41:26.627Z,6.76
2018-12-26T14:43:55.100Z,6.68
2018-12-26T14:46:23.531Z,6.62
2018-12-26T14:48:52.166Z,6.58
2018-12-26T14:51:26.324Z,6.55
2018-12-26T14:53:51.240Z,6.52
2018-12-26T14:56:19.824Z,6.49
2018-12-26T14:58:48.308Z,6.41
2018-12-26T15:01:16.736Z,6.38
2018-12-26T15:03:45.232Z,6.34
2018-12-26T15:06:13.653Z,6.33
2018-12-26T15:08:42.101Z,6.30
2018-12-26T15:11:10.577Z,6.25
2018-12-26T15:13:39.009Z,6.24
2018-12-26T15:16:07.527Z,6.21
2018-12-26T15:18:35.932Z,6.16
2018-12-26T15:21:04.427Z,6.14
2018-12-26T15:23:32.836Z,6.09
2018-12-26T15:26:01.290Z,6.04
2018-12-26T15:28:29.729Z,5.97
2018-12-26T15:30:58.162Z,5.92
2018-12-26T15:33:26.671Z,5.90
2018-12-26T15:35:55.188Z,5.85
2018-12-26T15:38:23.623Z,5.82
2018-12-26T15:40:52.068Z,5.81
2018-12-26T15:43:20.506Z,5.79
2018-12-26T15:45:48.964Z,5.77
2018-12-26T15:48:17.406Z,5.73
2018-12-26T15:50:45.837Z,5.69
2018-12-26T15:53:14.339Z,5.68
2018-12-26T15:55:42.763Z,5.65
2018-12-26T15:58:11.674Z,5.65
2018-12-26T16:00:40.162Z,5.63
2018-12-26T16:03:08.616Z,5.61
2018-12-26T16:05:37.051Z,5.61
2018-12-26T16:08:05.568Z,5.60
2018-12-26T16:10:34.064Z,5.57
2018-12-26T16:13:02.517Z,5.55
2018-12-26T16:15:30.939Z,5.52
2018-12-26T16:17:59.406Z,5.49
2018-12-26T16:20:27.835Z,5.48
2018-12-26T16:22:56.310Z,5.47
2018-12-26T16:25:24.743Z,5.47
2018-12-26T16:27:53.188Z,5.45
2018-12-26T16:30:21.620Z,5.41
2018-12-26T16:32:50.092Z,5.38
2018-12-26T16:35:18.546Z,5.38
2018-12-26T16:37:46.969Z,5.37
2018-12-26T16:40:15.497Z,5.34
2018-12-26T16:42:43.935Z,5.34
2018-12-26T16:45:12.365Z,5.32
2018-12-26T16:47:40.830Z,5.32
2018-12-26T16:50:09.381Z,5.29
2018-12-26T16:52:37.787Z,5.28
2018-12-26T16:55:07.213Z,5.28
2018-12-26T16:57:35.637Z,5.26
2018-12-26T17:00:06.027Z,5.24
2018-12-26T17:02:34.439Z,5.23
2018-12-26T17:05:03.008Z,5.20
2018-12-26T17:07:31.599Z,5.19
2018-12-26T17:10:00.155Z,5.18
2018-12-26T17:12:28.613Z,5.17
2018-12-26T17:14:57.123Z,5.15
2018-12-26T17:17:28.100Z,5.14
2018-12-26T17:19:56.577Z,5.13
2018-12-26T17:22:24.997Z,5.11
2018-12-26T17:24:53.453Z,5.08
2018-12-26T17:27:21.909Z,5.04
2018-12-26T17:29:50.364Z,5.05
2018-12-26T17:32:18.809Z,5.04
2018-12-26T17:34:47.282Z,5.02
2018-12-26T17:37:15.798Z,5.00
2018-12-26T17:39:44.320Z,4.99
2018-12-26T17:42:12.851Z,4.98
2018-12-26T17:44:41.301Z,4.98
2018-12-26T17:47:09.793Z,4.95
2018-12-26T17:49:38.288Z,4.91
2018-12-26T17:52:06.753Z,4.90
2018-12-26T17:54:38.537Z,4.88
2018-12-26T17:57:07.132Z,4.87
2018-12-26T17:59:41.271Z,4.87
2018-12-26T18:02:15.508Z,4.86
2018-12-26T18:04:43.938Z,4.85
2018-12-26T18:07:12.459Z,4.83
2018-12-26T18:09:40.886Z,4.83
2018-12-26T18:12:12.087Z,4.82
2018-12-26T18:14:39.671Z,4.80
2018-12-26T18:17:08.188Z,4.80
2018-12-26T18:19:36.786Z,4.79
2018-12-26T18:22:05.286Z,4.77
2018-12-26T18:24:33.706Z,4.75
2018-12-26T18:27:02.196Z,4.71
2018-12-26T18:29:30.693Z,4.70
2018-12-26T18:31:59.153Z,4.68
2018-12-26T18:34:27.623Z,4.67
2018-12-26T18:36:56.194Z,4.67
2018-12-26T18:39:24.740Z,4.65
2018-12-26T18:41:53.313Z,4.65
2018-12-26T18:44:21.792Z,4.62
2018-12-26T18:46:50.306Z,4.59
2018-12-26T18:49:18.763Z,4.58
2018-12-26T18:51:47.256Z,4.55
2018-12-26T18:54:15.713Z,4.55
2018-12-26T18:56:44.254Z,4.53
2018-12-26T18:59:12.719Z,4.51
2018-12-26T19:01:41.692Z,4.49
2018-12-26T19:04:10.234Z,4.48
2018-12-26T19:06:38.659Z,4.49
2018-12-26T19:09:07.313Z,4.48
2018-12-26T19:11:35.840Z,4.49
2018-12-26T19:14:04.567Z,4.49
2018-12-26T19:16:33.082Z,4.49
2018-12-26T19:19:01.537Z,4.49
2018-12-26T19:21:29.990Z,4.49
2018-12-26T19:23:58.963Z,4.48
2018-12-26T19:26:27.434Z,4.48
2018-12-26T19:28:55.933Z,4.48
2018-12-26T19:31:24.474Z,4.45
2018-12-26T19:33:52.996Z,4.43
2018-12-26T19:36:21.446Z,4.43
2018-12-26T19:38:49.868Z,4.44
2018-12-26T19:41:18.341Z,4.44
2018-12-26T19:43:46.789Z,4.45
2018-12-26T19:46:15.375Z,4.45
2018-12-26T19:48:43.808Z,4.45
2018-12-26T19:51:12.375Z,4.46
2018-12-26T19:53:40.820Z,4.48
2018-12-26T19:56:09.421Z,4.52
2018-12-26T19:58:38.006Z,4.50
2018-12-26T20:01:06.515Z,4.52
2018-12-26T20:03:35.135Z,4.55
2018-12-26T20:06:03.620Z,4.58
2018-12-26T20:08:32.057Z,4.60
2018-12-26T20:11:00.495Z,4.59
2018-12-26T20:13:28.955Z,4.60
2018-12-26T20:15:57.397Z,4.60
2018-12-26T20:18:25.860Z,4.62
2018-12-26T20:20:54.286Z,4.64
2018-12-26T20:23:22.752Z,4.67
2018-12-26T20:25:51.178Z,4.67
2018-12-26T20:28:19.805Z,4.64
2018-12-26T20:30:48.208Z,4.60
2018-12-26T20:33:16.765Z,4.60
2018-12-26T20:35:45.191Z,4.62
2018-12-26T20:38:13.660Z,4.59
2018-12-26T20:40:42.079Z,4.60
2018-12-26T20:43:10.593Z,4.58
2018-12-26T20:45:39.060Z,4.58
2018-12-26T20:48:07.552Z,4.60
2018-12-26T20:50:36.008Z,4.58
2018-12-26T20:53:04.456Z,4.59
2018-12-26T20:55:33.065Z,4.58
2018-12-26T20:58:01.503Z,4.59
2018-12-26T21:00:30.030Z,4.60
2018-12-26T21:02:58.487Z,4.59
2018-12-26T21:05:26.974Z,4.61
2018-12-26T21:07:55.383Z,4.62
2018-12-26T21:10:23.905Z,4.64
2018-12-26T21:12:52.407Z,4.63
2018-12-26T21:15:22.816Z,4.60
2018-12-26T21:17:50.992Z,4.59
2018-12-26T21:20:19.489Z,4.60
2018-12-26T21:22:48.053Z,4.60
2018-12-26T21:25:16.519Z,4.62
2018-12-26T21:27:45.018Z,4.61
2018-12-26T21:30:14.501Z,4.56
2018-12-26T21:32:43.005Z,4.53
2018-12-26T21:35:11.559Z,4.54
2018-12-26T21:37:40.091Z,4.50
2018-12-26T21:40:09.241Z,4.51
2018-12-26T21:42:37.728Z,4.52
2018-12-26T21:45:08.498Z,4.53
2018-12-26T21:47:37.052Z,4.50
2018-12-26T21:50:08.726Z,4.51
2018-12-26T21:52:37.271Z,4.49
2018-12-26T21:55:05.790Z,4.48
2018-12-26T21:57:34.259Z,4.43
2018-12-26T22:00:02.869Z,4.42
2018-12-26T22:02:31.370Z,4.43
2018-12-26T22:04:59.821Z,4.43
2018-12-26T22:07:28.253Z,4.44
2018-12-26T22:09:56.757Z,4.45
2018-12-26T22:12:25.211Z,4.44
2018-12-26T22:14:53.736Z,4.45
2018-12-26T22:17:22.162Z,4.45
2018-12-26T22:19:50.620Z,4.43
2018-12-26T22:22:20.691Z,4.45
2018-12-26T22:24:49.149Z,4.46
2018-12-26T22:27:17.572Z,4.46
2018-12-26T22:29:46.019Z,4.45
2018-12-26T22:32:14.518Z,4.43
2018-12-26T22:34:43.001Z,4.41
2018-12-26T22:37:11.466Z,4.44
2018-12-26T22:39:39.952Z,4.46
2018-12-26T22:42:08.359Z,4.43
2018-12-26T22:44:36.787Z,4.42
2018-12-26T22:47:05.274Z,4.43
2018-12-26T22:49:33.725Z,4.46
2018-12-26T22:52:02.167Z,4.51
2018-12-26T22:54:30.714Z,4.48
2018-12-26T22:56:59.133Z,4.46
2018-12-26T22:59:27.594Z,4.47
2018-12-26T23:01:56.041Z,4.48
2018-12-26T23:04:24.467Z,4.53
2018-12-26T23:06:52.926Z,4.55
2018-12-26T23:09:21.623Z,4.55
2018-12-26T23:11:50.097Z,4.58
2018-12-26T23:14:18.530Z,4.59
2018-12-26T23:16:46.992Z,4.56
2018-12-26T23:19:15.681Z,4.54
2018-12-26T23:21:44.127Z,4.55
2018-12-26T23:24:12.537Z,4.56
2018-12-26T23:26:40.984Z,4.57
2018-12-26T23:29:09.428Z,4.58
2018-12-26T23:31:37.977Z,4.56
2018-12-26T23:34:06.402Z,4.51
2018-12-26T23:36:34.855Z,4.51
2018-12-26T23:39:04.242Z,4.52
2018-12-26T23:41:32.698Z,4.56
2018-12-26T23:44:01.161Z,4.54
2018-12-26T23:46:29.590Z,4.48
2018-12-26T23:48:58.040Z,4.47
2018-12-26T23:51:26.500Z,4.48
2018-12-26T23:53:54.960Z,4.50
2018-12-26T23:56:23.457Z,4.48
2018-12-26T23:58:51.948Z,4.49
